createdAt,value
2024-05-09T00:00:53.497Z,7.90
2024-05-09T00:03:24.355Z,7.80
2024-05-09T00:05:54.889Z,7.80
2024-05-09T00:08:27.734Z,7.70
2024-05-09T00:10:58.349Z,7.80
2024-05-09T00:13:31.634Z,7.60
2024-05-09T00:16:03.012Z,7.50
2024-05-09T00:18:33.671Z,7.40
2024-05-09T00:21:04.381Z,7.30
2024-05-09T00:23:35.001Z,7.30
2024-05-09T00:26:05.897Z,7.20
2024-05-09T00:28:39.054Z,7.10
2024-05-09T00:31:09.612Z,7.10
2024-05-09T00:33:40.382Z,7.00
2024-05-09T00:36:11.572Z,6.90
2024-05-09T00:38:42.153Z,6.90
2024-05-09T00:41:13.423Z,6.80
2024-05-09T00:43:47.379Z,6.80
2024-05-09T00:46:21.329Z,6.70
2024-05-09T00:48:52.559Z,6.70
2024-05-09T00:51:23.623Z,6.60
2024-05-09T00:53:54.205Z,6.60
2024-05-09T00:56:25.503Z,6.50
2024-05-09T00:58:59.322Z,6.50
2024-05-09T01:01:30.748Z,6.50
2024-05-09T01:04:04.169Z,6.40
2024-05-09T01:06:35.230Z,6.30
2024-05-09T01:09:06.015Z,6.20
2024-05-09T01:11:40.495Z,6.10
2024-05-09T01:14:14.168Z,6.00
2024-05-09T01:16:45.190Z,5.90
2024-05-09T01:19:22.817Z,5.90
2024-05-09T01:21:53.892Z,5.80
2024-05-09T01:24:27.227Z,5.80
2024-05-09T01:26:58.144Z,5.80
2024-05-09T01:29:29.145Z,5.80
2024-05-09T01:32:00.540Z,5.80
2024-05-09T01:34:31.315Z,5.80
2024-05-09T01:37:02.728Z,5.70
2024-05-09T01:39:36.146Z,5.60
2024-05-09T01:42:07.160Z,5.60
2024-05-09T01:44:37.713Z,5.60
2024-05-09T01:47:08.633Z,5.60
2024-05-09T01:49:40.415Z,5.60
2024-05-09T01:52:13.815Z,5.60
2024-05-09T01:54:47.621Z,5.60
2024-05-09T01:57:18.818Z,5.60
2024-05-09T01:59:49.439Z,5.50
2024-05-09T02:02:20.109Z,5.50
2024-05-09T02:04:50.963Z,5.50
2024-05-09T02:07:21.605Z,5.40
2024-05-09T02:09:55.904Z,5.40
2024-05-09T02:12:26.581Z,5.20
2024-05-09T02:14:57.123Z,5.20
2024-05-09T02:17:27.918Z,5.20
2024-05-09T02:19:58.580Z,5.10
2024-05-09T02:22:29.205Z,5.10
2024-05-09T02:25:02.772Z,5.10
2024-05-09T02:27:33.328Z,5.00
2024-05-09T02:30:07.837Z,5.00
2024-05-09T02:32:43.138Z,4.80
2024-05-09T02:35:13.925Z,4.80
2024-05-09T02:37:44.790Z,4.70
2024-05-09T02:40:21.612Z,4.50
2024-05-09T02:42:56.351Z,4.60
2024-05-09T02:45:25.126Z,4.60
2024-05-09T02:47:55.918Z,4.60
2024-05-09T02:50:33.016Z,4.50
2024-05-09T02:53:09.186Z,4.50
2024-05-09T02:55:40.938Z,4.50
2024-05-09T02:58:12.476Z,4.50
2024-05-09T03:00:42.477Z,4.40
2024-05-09T03:03:15.479Z,4.40
2024-05-09T03:05:44.832Z,4.40
2024-05-09T03:08:15.932Z,4.30
2024-05-09T03:10:46.738Z,4.30
2024-05-09T03:13:17.606Z,4.30
2024-05-09T03:15:45.927Z,4.30
2024-05-09T03:18:16.729Z,4.30
2024-05-09T03:20:45.036Z,4.30
2024-05-09T03:23:15.894Z,4.30
2024-05-09T03:25:46.547Z,4.30
2024-05-09T03:28:17.211Z,4.40
2024-05-09T03:30:45.145Z,4.40
2024-05-09T03:33:18.669Z,4.50
2024-05-09T03:35:49.588Z,4.50
2024-05-09T03:38:20.877Z,4.60
2024-05-09T03:40:54.543Z,4.60
2024-05-09T03:43:25.411Z,4.70
2024-05-09T03:45:53.264Z,4.80
2024-05-09T03:48:24.005Z,4.80
2024-05-09T03:50:52.073Z,4.90
2024-05-09T03:53:23.258Z,5.00
2024-05-09T03:55:53.938Z,5.10
2024-05-09T03:58:24.483Z,5.40
2024-05-09T04:00:52.425Z,6.00
2024-05-09T04:03:23.150Z,7.00
2024-05-09T04:05:51.167Z,8.80
2024-05-09T04:08:21.856Z,11.00
2024-05-09T04:10:49.720Z,13.00
2024-05-09T04:13:22.966Z,14.80
2024-05-09T04:15:50.812Z,16.00
2024-05-09T04:18:21.511Z,17.00
2024-05-09T04:20:49.473Z,17.70
2024-05-09T04:23:20.012Z,18.30
2024-05-09T04:25:47.901Z,18.70
2024-05-09T04:28:18.445Z,18.90
2024-05-09T04:30:48.988Z,18.70
2024-05-09T04:33:20.410Z,18.10
2024-05-09T04:35:49.804Z,17.20
2024-05-09T04:38:20.678Z,15.80
2024-05-09T04:40:48.570Z,14.30
2024-05-09T04:43:21.547Z,12.90
2024-05-09T04:45:52.802Z,11.90
2024-05-09T04:48:23.581Z,11.10
2024-05-09T04:50:51.624Z,10.50
2024-05-09T04:53:22.353Z,10.10
2024-05-09T04:55:51.624Z,9.80
2024-05-09T04:58:22.536Z,9.60
2024-05-09T05:00:53.414Z,9.50
2024-05-09T05:03:27.859Z,9.40
2024-05-09T05:05:56.313Z,9.40
2024-05-09T05:08:27.330Z,9.20
2024-05-09T05:10:55.796Z,9.10
2024-05-09T05:13:26.520Z,9.10
2024-05-09T05:15:58.351Z,9.10
2024-05-09T05:18:30.572Z,9.10
2024-05-09T05:20:59.086Z,9.10
2024-05-09T05:23:30.237Z,9.10
2024-05-09T05:25:58.710Z,9.10
2024-05-09T05:28:29.560Z,9.10
2024-05-09T05:31:02.306Z,9.10
2024-05-09T05:33:33.243Z,9.10
2024-05-09T05:36:01.368Z,9.10
2024-05-09T05:38:32.876Z,9.10
2024-05-09T05:41:01.006Z,9.20
2024-05-09T05:43:32.686Z,9.30
2024-05-09T05:46:03.198Z,9.20
2024-05-09T05:48:33.985Z,9.40
2024-05-09T05:51:04.352Z,9.50
2024-05-09T05:53:35.477Z,9.60
2024-05-09T05:56:03.622Z,9.70
2024-05-09T05:58:34.247Z,9.80
2024-05-09T06:01:05.115Z,9.90
2024-05-09T06:03:35.726Z,9.90
2024-05-09T06:06:04.354Z,10.00
2024-05-09T06:08:35.910Z,10.10
2024-05-09T06:11:04.211Z,10.20
2024-05-09T06:13:34.874Z,10.30
2024-05-09T06:16:06.162Z,10.30
2024-05-09T06:18:36.797Z,10.40
2024-05-09T06:21:04.890Z,10.40
2024-05-09T06:23:35.625Z,10.60
2024-05-09T06:26:05.010Z,10.60
2024-05-09T06:28:35.639Z,10.60
2024-05-09T06:31:06.268Z,10.70
2024-05-09T06:33:37.065Z,10.90
2024-05-09T06:36:05.554Z,10.90
2024-05-09T06:38:38.224Z,11.00
2024-05-09T06:41:06.570Z,11.00
2024-05-09T06:43:46.157Z,11.00
2024-05-09T06:46:17.030Z,11.20
2024-05-09T06:48:49.103Z,11.40
2024-05-09T06:51:17.729Z,11.60
2024-05-09T06:53:48.881Z,11.60
2024-05-09T06:56:17.277Z,11.60
2024-05-09T06:58:48.172Z,11.60
2024-05-09T07:01:18.969Z,11.70
2024-05-09T07:03:49.710Z,11.80
2024-05-09T07:06:17.717Z,12.00
2024-05-09T07:08:48.795Z,12.20
2024-05-09T07:11:18.196Z,12.20
2024-05-09T07:13:48.965Z,12.30
2024-05-09T07:16:19.646Z,12.30
2024-05-09T07:18:55.281Z,12.40
2024-05-09T07:21:23.424Z,12.60
2024-05-09T07:23:54.123Z,12.70
2024-05-09T07:26:22.094Z,12.70
2024-05-09T07:28:52.832Z,12.80
2024-05-09T07:31:23.928Z,12.80
2024-05-09T07:33:54.672Z,12.90
2024-05-09T07:36:22.613Z,13.00
2024-05-09T07:38:53.320Z,13.20
2024-05-09T07:41:21.343Z,13.30
2024-05-09T07:43:52.007Z,13.40
2024-05-09T07:50:35.398Z,13.40
2024-05-09T07:54:32.061Z,13.70
2024-05-09T07:57:14.922Z,13.70
2024-05-09T07:59:45.734Z,13.70
2024-05-09T08:02:13.811Z,13.70
2024-05-09T08:04:47.771Z,13.60
2024-05-09T08:07:16.022Z,13.70
2024-05-09T08:09:47.078Z,13.70
2024-05-09T08:12:15.161Z,13.70
2024-05-09T08:14:46.108Z,13.70
2024-05-09T08:17:14.275Z,13.70
2024-05-09T08:19:48.343Z,13.70
2024-05-09T08:22:16.830Z,13.70
2024-05-09T08:24:47.543Z,13.80
2024-05-09T08:27:15.637Z,13.90
2024-05-09T08:29:46.685Z,13.80
2024-05-09T08:32:14.946Z,14.10
2024-05-09T08:34:48.463Z,13.90
2024-05-09T08:37:48.125Z,13.90
2024-05-09T08:40:33.489Z,14.00
2024-05-09T08:43:12.072Z,14.10
2024-05-09T08:45:44.513Z,14.10
2024-05-09T08:48:17.470Z,14.20
2024-05-09T08:50:55.056Z,14.30
2024-05-09T08:53:23.712Z,14.30
2024-05-09T08:55:55.179Z,14.40
2024-05-09T08:58:23.343Z,14.30
2024-05-09T09:00:54.303Z,14.20
2024-05-09T09:03:25.583Z,14.20
2024-05-09T09:06:04.851Z,14.30
2024-05-09T09:08:33.005Z,14.40
2024-05-09T09:11:03.889Z,14.60
2024-05-09T09:13:32.173Z,14.70
2024-05-09T09:16:04.121Z,14.70
2024-05-09T09:18:33.448Z,14.70
2024-05-09T09:21:06.945Z,14.60
2024-05-09T09:23:34.936Z,14.50
2024-05-09T09:26:05.638Z,14.60
2024-05-09T09:28:37.976Z,14.60
2024-05-09T09:31:08.823Z,14.70
2024-05-09T09:33:42.974Z,14.80
2024-05-09T09:36:18.710Z,14.90
2024-05-09T09:38:48.260Z,15.00
2024-05-09T09:41:23.584Z,15.20
2024-05-09T09:43:52.156Z,15.30
2024-05-09T09:46:23.661Z,15.30
2024-05-09T09:48:52.290Z,15.30
2024-05-09T09:51:26.856Z,15.30
2024-05-09T09:53:55.418Z,15.30
2024-05-09T09:56:29.121Z,15.40
2024-05-09T10:16:01.560Z,15.60
2024-05-09T10:19:11.933Z,15.80
2024-05-09T10:21:50.967Z,16.00
2024-05-09T10:24:19.422Z,16.00
2024-05-09T10:26:56.123Z,16.00
2024-05-09T10:29:26.573Z,15.90
2024-05-09T10:32:03.674Z,15.70
2024-05-09T10:34:35.169Z,15.60
2024-05-09T10:37:07.355Z,15.60
2024-05-09T10:39:36.928Z,15.80
2024-05-09T10:42:13.134Z,15.90
2024-05-09T10:44:42.932Z,15.90
2024-05-09T10:47:16.731Z,15.90
2024-05-09T10:49:45.014Z,15.90
2024-05-09T10:52:15.948Z,16.00
2024-05-09T10:54:44.404Z,16.20
2024-05-09T10:57:17.829Z,16.30
2024-05-09T10:59:46.852Z,16.20
2024-05-09T11:02:21.974Z,16.20
2024-05-09T11:04:54.568Z,16.10
2024-05-09T11:07:25.819Z,16.10
2024-05-09T11:09:54.415Z,16.20
2024-05-09T11:12:25.392Z,16.30
2024-05-09T11:14:54.270Z,16.40
2024-05-09T11:17:28.678Z,16.50
2024-05-09T11:19:59.847Z,16.50
2024-05-09T11:22:35.766Z,16.70
2024-05-09T11:25:04.933Z,16.70
2024-05-09T11:27:44.975Z,16.80
2024-05-09T11:30:26.793Z,16.90
2024-05-09T11:33:11.003Z,17.00
2024-05-09T11:35:43.756Z,17.00
2024-05-09T11:38:16.323Z,17.00
2024-05-09T11:40:59.841Z,17.10
2024-05-09T11:43:44.010Z,17.10
2024-05-09T11:46:25.248Z,17.10
2024-05-09T11:49:03.852Z,17.10
2024-05-09T11:51:35.106Z,17.20
2024-05-09T11:54:03.936Z,17.10
2024-05-09T11:56:34.737Z,17.20
2024-05-09T11:59:02.803Z,17.40
2024-05-09T12:01:33.731Z,17.40
2024-05-09T12:04:05.116Z,17.40
2024-05-09T12:06:36.262Z,17.40
2024-05-09T12:09:04.270Z,17.40
2024-05-09T12:11:36.301Z,17.50
2024-05-09T12:14:04.432Z,17.60
2024-05-09T12:16:35.244Z,17.70
2024-05-09T12:19:06.260Z,17.60
2024-05-09T12:21:36.980Z,17.50
2024-05-09T12:24:05.172Z,17.50
2024-05-09T12:26:41.955Z,17.40
2024-05-09T12:29:10.638Z,17.40
2024-05-09T12:31:47.050Z,17.50
2024-05-09T12:34:21.033Z,17.50
2024-05-09T12:36:56.955Z,17.70
2024-05-09T12:39:31.302Z,17.60
2024-05-09T12:42:04.331Z,17.60
2024-05-09T12:44:32.614Z,17.60
2024-05-09T12:47:09.447Z,17.70
2024-05-09T12:49:43.913Z,17.60
2024-05-09T12:52:42.528Z,17.70
2024-05-09T12:55:18.843Z,17.60
2024-05-09T12:57:57.396Z,17.70
2024-05-09T13:00:33.975Z,17.70
2024-05-09T13:03:17.035Z,17.80
2024-05-09T13:05:54.500Z,17.90
2024-05-09T13:08:28.175Z,17.90
2024-05-09T13:10:56.376Z,17.90
2024-05-09T13:13:39.183Z,18.00
2024-05-09T13:16:33.066Z,18.00
2024-05-09T13:23:18.589Z,18.20
2024-05-09T13:25:49.569Z,18.20
2024-05-09T13:28:21.913Z,18.10
2024-05-09T13:30:50.171Z,18.10
2024-05-09T13:33:23.750Z,18.10
2024-05-09T13:35:52.279Z,18.10
2024-05-09T13:38:28.443Z,18.10
2024-05-09T13:40:56.676Z,18.20
2024-05-09T13:43:27.663Z,18.10
2024-05-09T13:45:56.677Z,18.20
2024-05-09T13:48:27.930Z,18.10
2024-05-09T13:50:58.897Z,18.20
2024-05-09T13:53:32.679Z,18.20
2024-05-09T13:56:06.669Z,18.30
2024-05-09T13:58:38.276Z,18.40
2024-05-09T14:01:07.846Z,18.40
2024-05-09T14:03:38.823Z,18.40
2024-05-09T14:06:13.273Z,18.30
2024-05-09T14:08:45.952Z,18.70
2024-05-09T14:11:17.846Z,18.80
2024-05-09T14:13:46.001Z,18.70
2024-05-09T14:16:17.391Z,18.60
2024-05-09T14:18:46.047Z,18.80
2024-05-09T14:21:16.910Z,18.90
2024-05-09T14:23:48.756Z,18.90
2024-05-09T14:26:19.518Z,18.90
2024-05-09T14:28:47.679Z,18.90
2024-05-09T14:31:18.527Z,18.90
2024-05-09T14:33:47.071Z,18.90
2024-05-09T14:36:19.217Z,18.90
2024-05-09T14:38:53.108Z,18.90
2024-05-09T14:41:23.897Z,19.00
2024-05-09T14:43:51.982Z,19.10
2024-05-09T14:46:23.434Z,19.30
2024-05-09T14:48:52.211Z,19.40
2024-05-09T14:51:23.868Z,19.50
2024-05-09T14:53:54.652Z,19.90
2024-05-09T14:56:33.166Z,19.80
2024-05-09T14:59:10.266Z,19.80
2024-05-09T15:01:55.249Z,19.80
2024-05-09T15:04:25.494Z,20.20
2024-05-09T15:06:57.227Z,20.50
2024-05-09T15:09:32.510Z,20.70
2024-05-09T15:12:04.124Z,21.10
2024-05-09T15:14:32.468Z,21.30
2024-05-09T15:17:03.592Z,21.40
2024-05-09T15:19:32.249Z,21.50
2024-05-09T15:22:05.441Z,21.60
2024-05-09T15:24:36.448Z,21.80
2024-05-09T15:27:07.557Z,21.70
2024-05-09T15:29:35.512Z,21.40
2024-05-09T15:32:06.661Z,21.00
2024-05-09T15:34:34.680Z,20.60
2024-05-09T15:37:05.546Z,20.30
2024-05-09T15:39:36.585Z,19.90
2024-05-09T15:42:07.877Z,19.50
2024-05-09T15:44:36.263Z,19.20
2024-05-09T15:47:07.554Z,19.00
2024-05-09T15:49:35.863Z,18.80
2024-05-09T15:52:06.959Z,18.70
2024-05-09T15:54:38.030Z,18.60
2024-05-09T15:57:09.744Z,18.50
2024-05-09T15:59:37.938Z,18.30
2024-05-09T16:02:11.758Z,18.20
2024-05-09T16:04:39.982Z,18.10
2024-05-09T16:07:10.901Z,18.00
2024-05-09T16:09:41.737Z,18.00
2024-05-09T16:12:12.483Z,17.90
2024-05-09T16:14:40.626Z,17.80
2024-05-09T16:17:11.678Z,17.70
2024-05-09T16:19:40.110Z,17.70
2024-05-09T16:22:10.856Z,17.60
2024-05-09T16:24:41.742Z,17.60
2024-05-09T16:27:12.563Z,17.70
2024-05-09T16:29:40.603Z,17.80
2024-05-09T16:32:11.458Z,17.80
2024-05-09T16:34:39.564Z,17.70
2024-05-09T16:37:11.258Z,17.70
2024-05-09T16:39:42.014Z,17.70
2024-05-09T16:42:12.616Z,17.50
2024-05-09T16:44:40.522Z,17.30
2024-05-09T16:47:11.185Z,17.10
2024-05-09T16:49:39.126Z,16.90
2024-05-09T16:52:10.299Z,16.90
2024-05-09T16:54:41.037Z,16.90
2024-05-09T16:57:11.648Z,16.90
2024-05-09T16:59:39.551Z,16.90
2024-05-09T17:02:10.323Z,16.80
2024-05-09T17:04:38.623Z,16.80
2024-05-09T17:07:10.970Z,16.70
2024-05-09T17:09:42.516Z,16.70
2024-05-09T17:12:13.342Z,16.70
2024-05-09T17:14:43.973Z,16.60
2024-05-09T17:17:14.997Z,16.60
2024-05-09T17:19:45.198Z,16.60
2024-05-09T17:22:16.052Z,16.50
2024-05-09T17:24:46.783Z,16.60
2024-05-09T17:27:17.644Z,16.50
2024-05-09T17:29:45.650Z,16.50
2024-05-09T17:32:16.355Z,16.40
2024-05-09T17:34:44.297Z,16.30
2024-05-09T17:37:15.188Z,16.20
2024-05-09T17:39:46.090Z,16.10
2024-05-09T17:42:16.822Z,16.00
2024-05-09T17:44:44.770Z,16.00
2024-05-09T17:47:15.421Z,15.90
2024-05-09T17:49:43.377Z,15.90
2024-05-09T17:52:14.454Z,15.80
2024-05-09T17:54:42.545Z,15.70
2024-05-09T17:57:16.114Z,15.60
2024-05-09T17:59:44.353Z,15.50
2024-05-09T18:02:15.155Z,15.40
2024-05-09T18:04:43.295Z,15.20
2024-05-09T18:07:14.525Z,15.10
2024-05-09T18:09:42.734Z,15.00
2024-05-09T18:12:16.219Z,14.90
2024-05-09T18:14:44.497Z,14.90
2024-05-09T18:17:15.308Z,14.80
2024-05-09T18:19:45.582Z,14.70
2024-05-09T18:22:16.526Z,14.50
2024-05-09T18:24:44.644Z,14.40
2024-05-09T18:27:20.567Z,14.30
2024-05-09T18:29:48.518Z,14.20
2024-05-09T18:32:19.255Z,14.00
2024-05-09T18:34:47.288Z,13.90
2024-05-09T18:37:18.195Z,13.70
2024-05-09T18:39:46.181Z,13.60
2024-05-09T18:42:19.576Z,13.60
2024-05-09T18:44:47.488Z,13.50
2024-05-09T18:47:19.972Z,13.40
2024-05-09T18:49:48.378Z,13.30
2024-05-09T18:52:19.156Z,13.20
2024-05-09T18:54:48.090Z,13.10
2024-05-09T18:57:21.481Z,13.00
2024-05-09T18:59:49.469Z,12.90
2024-05-09T19:02:20.626Z,12.80
2024-05-09T19:04:48.759Z,12.70
2024-05-09T19:07:19.894Z,12.50
2024-05-09T19:09:48.124Z,12.40
2024-05-09T19:12:21.476Z,12.30
2024-05-09T19:14:50.503Z,12.10
2024-05-09T19:17:21.567Z,12.00
2024-05-09T19:19:49.755Z,11.90
2024-05-09T19:22:20.475Z,11.90
2024-05-09T19:24:48.547Z,11.80
2024-05-09T19:27:22.034Z,11.70
2024-05-09T19:29:50.081Z,11.70
2024-05-09T19:32:25.081Z,11.60
2024-05-09T19:34:53.225Z,11.60
2024-05-09T19:37:24.132Z,11.40
2024-05-09T19:39:52.342Z,11.40
2024-05-09T19:42:25.834Z,11.30
2024-05-09T19:44:53.771Z,11.20
2024-05-09T19:47:24.679Z,11.10
2024-05-09T19:49:52.816Z,11.10
2024-05-09T19:52:23.436Z,11.00
2024-05-09T19:54:51.398Z,10.90
2024-05-09T19:57:24.957Z,10.80
2024-05-09T20:00:22.382Z,10.70
2024-05-09T20:03:00.335Z,10.70
2024-05-09T20:05:46.289Z,10.60
2024-05-09T20:08:17.954Z,10.70
2024-05-09T20:10:53.395Z,10.50
2024-05-09T20:13:31.679Z,10.40
2024-05-09T20:16:01.708Z,10.30
2024-05-09T20:18:52.462Z,10.30
2024-05-09T20:21:31.547Z,10.20
2024-05-09T20:24:11.164Z,10.20
2024-05-09T20:26:46.418Z,10.10
2024-05-09T20:29:33.564Z,10.00
2024-05-09T20:35:04.738Z,9.90
2024-05-09T20:37:32.747Z,9.80
2024-05-09T20:40:03.882Z,9.70
2024-05-09T20:42:33.105Z,9.70
2024-05-09T20:45:06.800Z,9.60
2024-05-09T20:47:41.557Z,9.60
2024-05-09T20:50:36.301Z,9.50
2024-05-09T20:53:25.926Z,9.40
2024-05-09T20:56:12.398Z,9.50
2024-05-09T20:58:43.271Z,9.40
2024-05-09T21:01:19.910Z,9.40
2024-05-09T21:03:50.981Z,9.30
2024-05-09T21:06:19.128Z,9.20
2024-05-09T21:08:49.782Z,9.20
2024-05-09T21:11:17.953Z,9.10
2024-05-09T21:13:49.154Z,9.00
2024-05-09T21:16:24.777Z,9.00
2024-05-09T21:18:55.682Z,8.90
2024-05-09T21:21:25.959Z,8.80
2024-05-09T21:23:56.732Z,8.80
2024-05-09T21:26:27.218Z,8.70
2024-05-09T21:28:58.225Z,8.60
2024-05-09T21:31:29.052Z,8.70
2024-05-09T21:34:00.021Z,8.70
2024-05-09T21:36:28.639Z,8.70
2024-05-09T21:38:59.512Z,8.70
2024-05-09T21:41:27.578Z,8.60
2024-05-09T21:43:58.236Z,8.50
2024-05-09T21:46:29.333Z,8.40
2024-05-09T21:49:01.003Z,8.30
2024-05-09T21:51:29.306Z,8.30
2024-05-09T21:54:00.184Z,8.20
2024-05-09T21:56:28.287Z,8.20
2024-05-09T21:58:58.927Z,8.20
2024-05-09T22:01:29.676Z,8.20
2024-05-09T22:04:00.543Z,8.20
2024-05-09T22:06:28.643Z,8.20
2024-05-09T22:08:59.656Z,8.20
2024-05-09T22:11:28.061Z,8.10
2024-05-09T22:13:59.304Z,8.10
2024-05-09T22:16:30.272Z,8.00
2024-05-09T22:19:04.370Z,7.90
2024-05-09T22:21:32.617Z,7.90
2024-05-09T22:24:03.722Z,7.80
2024-05-09T22:26:32.090Z,7.70
2024-05-09T22:29:02.950Z,7.70
2024-05-09T22:31:33.872Z,7.70
2024-05-09T22:34:04.895Z,7.60
2024-05-09T22:36:33.178Z,7.60
2024-05-09T22:39:03.930Z,7.50
2024-05-09T22:41:32.383Z,7.60
2024-05-09T22:44:04.235Z,7.50
2024-05-09T22:46:38.282Z,7.40
2024-05-09T22:49:09.466Z,7.40
2024-05-09T22:51:37.610Z,7.30
2024-05-09T22:54:08.538Z,7.30
2024-05-09T22:56:36.603Z,7.20
2024-05-09T22:59:07.494Z,7.20
2024-05-09T23:01:38.320Z,7.20
2024-05-09T23:04:09.292Z,7.20
2024-05-09T23:06:41.290Z,7.20
2024-05-09T23:09:12.276Z,7.20
2024-05-09T23:11:42.211Z,7.10
2024-05-09T23:14:13.064Z,7.10
2024-05-09T23:16:43.918Z,7.00
2024-05-09T23:19:14.704Z,7.00
2024-05-09T23:21:42.981Z,7.00
2024-05-09T23:24:13.650Z,7.00
2024-05-09T23:26:43.539Z,7.00
2024-05-09T23:29:14.270Z,6.90
2024-05-09T23:31:45.004Z,6.90
2024-05-09T23:34:16.027Z,6.90
2024-05-09T23:36:44.257Z,6.80
2024-05-09T23:39:15.038Z,6.80
2024-05-09T23:41:42.911Z,6.70
2024-05-09T23:44:13.483Z,6.70
2024-05-09T23:46:44.248Z,6.70
2024-05-09T23:49:15.070Z,6.70
2024-05-09T23:51:43.022Z,6.60
2024-05-09T23:54:13.694Z,6.60
2024-05-09T23:56:41.768Z,6.60
2024-05-09T23:59:12.556Z,6.50
